sensor_id;sensor_type;location;lat;lon;timestamp;P1;durP1;ratioP1;P2;durP2;ratioP2
75096;SDS011;63684;47.964;11.186;2023-05-07T00:01:12;5.90;;;4.13;;
75096;SDS011;63684;47.964;11.186;2023-05-07T00:03:38;5.27;;;4.77;;
75096;SDS011;63684;47.964;11.186;2023-05-07T00:06:04;7.90;;;4.33;;
75096;SDS011;63684;47.964;11.186;2023-05-07T00:08:29;5.00;;;4.47;;
75096;SDS011;63684;47.964;11.186;2023-05-07T00:10:55;4.83;;;3.53;;
75096;SDS011;63684;47.964;11.186;2023-05-07T00:13:20;4.47;;;4.07;;
75096;SDS011;63684;47.964;11.186;2023-05-07T00:15:46;5.13;;;4.50;;
75096;SDS011;63684;47.964;11.186;2023-05-07T00:18:11;6.90;;;5.63;;
75096;SDS011;63684;47.964;11.186;2023-05-07T00:20:36;4.70;;;4.30;;
75096;SDS011;63684;47.964;11.186;2023-05-07T00:23:02;4.43;;;3.70;;
75096;SDS011;63684;47.964;11.186;2023-05-07T00:25:27;3.50;;;3.20;;
75096;SDS011;63684;47.964;11.186;2023-05-07T00:27:53;6.30;;;3.80;;
75096;SDS011;63684;47.964;11.186;2023-05-07T00:30:18;3.70;;;3.37;;
75096;SDS011;63684;47.964;11.186;2023-05-07T00:32:44;4.63;;;3.20;;
75096;SDS011;63684;47.964;11.186;2023-05-07T00:35:14;5.23;;;3.37;;
75096;SDS011;63684;47.964;11.186;2023-05-07T00:37:39;3.77;;;3.10;;
75096;SDS011;63684;47.964;11.186;2023-05-07T00:40:05;4.60;;;3.60;;
75096;SDS011;63684;47.964;11.186;2023-05-07T00:42:32;3.93;;;3.63;;
75096;SDS011;63684;47.964;11.186;2023-05-07T00:44:58;11.53;;;3.50;;
75096;SDS011;63684;47.964;11.186;2023-05-07T00:47:24;6.93;;;3.57;;
75096;SDS011;63684;47.964;11.186;2023-05-07T00:49:50;4.93;;;3.70;;
75096;SDS011;63684;47.964;11.186;2023-05-07T00:52:16;4.10;;;3.80;;
75096;SDS011;63684;47.964;11.186;2023-05-07T00:54:42;5.00;;;3.50;;
75096;SDS011;63684;47.964;11.186;2023-05-07T00:57:08;3.97;;;3.63;;
75096;SDS011;63684;47.964;11.186;2023-05-07T00:59:34;6.27;;;3.87;;
75096;SDS011;63684;47.964;11.186;2023-05-07T01:02:00;6.97;;;4.00;;
75096;SDS011;63684;47.964;11.186;2023-05-07T01:04:26;9.03;;;4.43;;
75096;SDS011;63684;47.964;11.186;2023-05-07T01:06:52;7.00;;;4.60;;
75096;SDS011;63684;47.964;11.186;2023-05-07T01:09:21;5.30;;;4.50;;
75096;SDS011;63684;47.964;11.186;2023-05-07T01:11:48;4.30;;;3.90;;
75096;SDS011;63684;47.964;11.186;2023-05-07T01:14:14;4.53;;;3.97;;
75096;SDS011;63684;47.964;11.186;2023-05-07T01:16:40;4.40;;;4.00;;
75096;SDS011;63684;47.964;11.186;2023-05-07T01:19:08;4.17;;;3.73;;
75096;SDS011;63684;47.964;11.186;2023-05-07T01:21:35;4.73;;;4.23;;
75096;SDS011;63684;47.964;11.186;2023-05-07T01:24:04;4.23;;;3.87;;
75096;SDS011;63684;47.964;11.186;2023-05-07T01:26:31;5.73;;;4.23;;
75096;SDS011;63684;47.964;11.186;2023-05-07T01:28:57;4.17;;;3.60;;
75096;SDS011;63684;47.964;11.186;2023-05-07T01:31:22;3.90;;;3.60;;
75096;SDS011;63684;47.964;11.186;2023-05-07T01:33:48;3.57;;;3.30;;
75096;SDS011;63684;47.964;11.186;2023-05-07T01:36:15;5.37;;;3.83;;
75096;SDS011;63684;47.964;11.186;2023-05-07T01:38:42;5.50;;;3.90;;
75096;SDS011;63684;47.964;11.186;2023-05-07T01:41:08;4.40;;;3.80;;
75096;SDS011;63684;47.964;11.186;2023-05-07T01:43:33;3.80;;;3.50;;
75096;SDS011;63684;47.964;11.186;2023-05-07T01:45:59;7.87;;;4.27;;
75096;SDS011;63684;47.964;11.186;2023-05-07T01:48:25;7.23;;;5.27;;
75096;SDS011;63684;47.964;11.186;2023-05-07T01:50:50;5.30;;;4.80;;
75096;SDS011;63684;47.964;11.186;2023-05-07T01:53:16;5.07;;;4.63;;
75096;SDS011;63684;47.964;11.186;2023-05-07T01:55:42;5.93;;;4.60;;
75096;SDS011;63684;47.964;11.186;2023-05-07T01:58:08;6.83;;;4.53;;
75096;SDS011;63684;47.964;11.186;2023-05-07T02:00:33;5.17;;;4.63;;
75096;SDS011;63684;47.964;11.186;2023-05-07T02:02:59;5.17;;;4.67;;
75096;SDS011;63684;47.964;11.186;2023-05-07T02:05:33;5.43;;;4.93;;
75096;SDS011;63684;47.964;11.186;2023-05-07T02:08:07;6.13;;;4.00;;
75096;SDS011;63684;47.964;11.186;2023-05-07T02:10:33;7.17;;;4.47;;
75096;SDS011;63684;47.964;11.186;2023-05-07T02:12:59;4.63;;;4.23;;
75096;SDS011;63684;47.964;11.186;2023-05-07T02:15:26;4.03;;;3.57;;
75096;SDS011;63684;47.964;11.186;2023-05-07T02:18:06;5.17;;;4.00;;
75096;SDS011;63684;47.964;11.186;2023-05-07T02:20:32;4.17;;;3.57;;
75096;SDS011;63684;47.964;11.186;2023-05-07T02:22:58;4.37;;;3.97;;
75096;SDS011;63684;47.964;11.186;2023-05-07T02:25:25;4.50;;;4.10;;
75096;SDS011;63684;47.964;11.186;2023-05-07T02:27:51;4.23;;;3.83;;
75096;SDS011;63684;47.964;11.186;2023-05-07T02:30:18;4.00;;;3.33;;
75096;SDS011;63684;47.964;11.186;2023-05-07T02:32:46;6.27;;;3.60;;
75096;SDS011;63684;47.964;11.186;2023-05-07T02:35:12;4.53;;;3.60;;
75096;SDS011;63684;47.964;11.186;2023-05-07T02:37:37;5.17;;;3.37;;
75096;SDS011;63684;47.964;11.186;2023-05-07T02:40:03;3.30;;;3.00;;
75096;SDS011;63684;47.964;11.186;2023-05-07T02:42:30;3.60;;;3.30;;
75096;SDS011;63684;47.964;11.186;2023-05-07T02:44:55;3.60;;;3.30;;
75096;SDS011;63684;47.964;11.186;2023-05-07T02:47:21;3.60;;;3.30;;
75096;SDS011;63684;47.964;11.186;2023-05-07T02:49:47;6.17;;;3.97;;
75096;SDS011;63684;47.964;11.186;2023-05-07T02:52:12;6.30;;;3.43;;
75096;SDS011;63684;47.964;11.186;2023-05-07T02:54:38;6.27;;;3.30;;
75096;SDS011;63684;47.964;11.186;2023-05-07T02:57:03;4.10;;;3.40;;
75096;SDS011;63684;47.964;11.186;2023-05-07T02:59:29;3.67;;;3.37;;
75096;SDS011;63684;47.964;11.186;2023-05-07T03:01:56;3.40;;;3.10;;
75096;SDS011;63684;47.964;11.186;2023-05-07T03:04:21;3.90;;;3.20;;
75096;SDS011;63684;47.964;11.186;2023-05-07T03:06:47;4.17;;;3.20;;
75096;SDS011;63684;47.964;11.186;2023-05-07T03:09:12;3.60;;;3.30;;
75096;SDS011;63684;47.964;11.186;2023-05-07T03:11:38;4.50;;;3.20;;
75096;SDS011;63684;47.964;11.186;2023-05-07T03:14:03;3.20;;;3.00;;
75096;SDS011;63684;47.964;11.186;2023-05-07T03:16:30;3.17;;;2.87;;
75096;SDS011;63684;47.964;11.186;2023-05-07T03:18:55;6.33;;;3.50;;
75096;SDS011;63684;47.964;11.186;2023-05-07T03:21:21;4.30;;;3.10;;
75096;SDS011;63684;47.964;11.186;2023-05-07T03:23:46;7.37;;;3.80;;
75096;SDS011;63684;47.964;11.186;2023-05-07T03:26:12;4.33;;;3.20;;
75096;SDS011;63684;47.964;11.186;2023-05-07T03:28:37;4.03;;;3.63;;
75096;SDS011;63684;47.964;11.186;2023-05-07T03:31:06;5.43;;;3.73;;
75096;SDS011;63684;47.964;11.186;2023-05-07T03:33:38;4.70;;;4.30;;
75096;SDS011;63684;47.964;11.186;2023-05-07T03:36:12;3.80;;;3.43;;
75096;SDS011;63684;47.964;11.186;2023-05-07T03:38:38;5.27;;;3.93;;
75096;SDS011;63684;47.964;11.186;2023-05-07T03:41:04;4.20;;;3.80;;
75096;SDS011;63684;47.964;11.186;2023-05-07T03:43:30;6.17;;;4.10;;
75096;SDS011;63684;47.964;11.186;2023-05-07T03:46:02;4.83;;;3.90;;
75096;SDS011;63684;47.964;11.186;2023-05-07T03:48:28;4.80;;;4.40;;
75096;SDS011;63684;47.964;11.186;2023-05-07T03:50:57;7.50;;;4.27;;
75096;SDS011;63684;47.964;11.186;2023-05-07T03:53:24;4.40;;;3.77;;
75096;SDS011;63684;47.964;11.186;2023-05-07T03:55:49;4.37;;;3.97;;
75096;SDS011;63684;47.964;11.186;2023-05-07T03:58:15;7.07;;;3.53;;
75096;SDS011;63684;47.964;11.186;2023-05-07T04:00:41;4.77;;;3.27;;
75096;SDS011;63684;47.964;11.186;2023-05-07T04:03:17;3.77;;;3.30;;
75096;SDS011;63684;47.964;11.186;2023-05-07T04:05:42;3.70;;;3.17;;
75096;SDS011;63684;47.964;11.186;2023-05-07T04:08:08;4.17;;;3.83;;
75096;SDS011;63684;47.964;11.186;2023-05-07T04:10:38;4.53;;;3.40;;
75096;SDS011;63684;47.964;11.186;2023-05-07T04:13:07;3.10;;;2.80;;
75096;SDS011;63684;47.964;11.186;2023-05-07T04:15:34;3.87;;;3.43;;
75096;SDS011;63684;47.964;11.186;2023-05-07T04:18:00;7.07;;;3.33;;
75096;SDS011;63684;47.964;11.186;2023-05-07T04:20:26;4.37;;;3.50;;
75096;SDS011;63684;47.964;11.186;2023-05-07T04:22:58;6.77;;;3.40;;
75096;SDS011;63684;47.964;11.186;2023-05-07T04:25:24;3.10;;;2.90;;
75096;SDS011;63684;47.964;11.186;2023-05-07T04:27:54;4.47;;;3.10;;
75096;SDS011;63684;47.964;11.186;2023-05-07T04:30:21;4.57;;;3.30;;
75096;SDS011;63684;47.964;11.186;2023-05-07T04:32:46;5.50;;;3.60;;
75096;SDS011;63684;47.964;11.186;2023-05-07T04:35:13;4.00;;;3.60;;
75096;SDS011;63684;47.964;11.186;2023-05-07T04:37:39;8.57;;;3.67;;
75096;SDS011;63684;47.964;11.186;2023-05-07T04:40:05;3.53;;;3.23;;
75096;SDS011;63684;47.964;11.186;2023-05-07T04:42:32;7.87;;;3.60;;
75096;SDS011;63684;47.964;11.186;2023-05-07T04:45:00;6.87;;;3.47;;
75096;SDS011;63684;47.964;11.186;2023-05-07T04:47:26;5.20;;;4.03;;
75096;SDS011;63684;47.964;11.186;2023-05-07T04:49:51;3.67;;;3.30;;
75096;SDS011;63684;47.964;11.186;2023-05-07T04:52:17;3.50;;;2.97;;
75096;SDS011;63684;47.964;11.186;2023-05-07T04:54:42;3.50;;;2.80;;
75096;SDS011;63684;47.964;11.186;2023-05-07T04:57:08;3.20;;;2.90;;
75096;SDS011;63684;47.964;11.186;2023-05-07T04:59:34;4.47;;;3.10;;
75096;SDS011;63684;47.964;11.186;2023-05-07T05:01:59;3.83;;;3.43;;
75096;SDS011;63684;47.964;11.186;2023-05-07T05:04:25;4.10;;;2.93;;
75096;SDS011;63684;47.964;11.186;2023-05-07T05:06:51;7.17;;;3.00;;
75096;SDS011;63684;47.964;11.186;2023-05-07T05:09:17;5.73;;;3.73;;
75096;SDS011;63684;47.964;11.186;2023-05-07T05:11:43;4.23;;;3.20;;
75096;SDS011;63684;47.964;11.186;2023-05-07T05:14:08;4.80;;;4.00;;
75096;SDS011;63684;47.964;11.186;2023-05-07T05:16:34;6.20;;;3.97;;
75096;SDS011;63684;47.964;11.186;2023-05-07T05:18:59;6.37;;;3.57;;
75096;SDS011;63684;47.964;11.186;2023-05-07T05:21:25;3.60;;;3.30;;
75096;SDS011;63684;47.964;11.186;2023-05-07T05:23:55;5.87;;;3.47;;
75096;SDS011;63684;47.964;11.186;2023-05-07T05:26:23;5.63;;;3.50;;
75096;SDS011;63684;47.964;11.186;2023-05-07T05:28:49;3.87;;;3.23;;
75096;SDS011;63684;47.964;11.186;2023-05-07T05:31:17;5.33;;;3.70;;
75096;SDS011;63684;47.964;11.186;2023-05-07T05:33:42;4.03;;;3.43;;
75096;SDS011;63684;47.964;11.186;2023-05-07T05:36:11;5.20;;;3.90;;
75096;SDS011;63684;47.964;11.186;2023-05-07T05:38:38;3.13;;;2.93;;
75096;SDS011;63684;47.964;11.186;2023-05-07T05:41:04;5.30;;;3.13;;
75096;SDS011;63684;47.964;11.186;2023-05-07T05:43:30;4.00;;;2.80;;
75096;SDS011;63684;47.964;11.186;2023-05-07T05:45:55;5.10;;;2.80;;
75096;SDS011;63684;47.964;11.186;2023-05-07T05:48:21;4.40;;;2.63;;
75096;SDS011;63684;47.964;11.186;2023-05-07T05:50:47;3.53;;;2.97;;
75096;SDS011;63684;47.964;11.186;2023-05-07T05:53:14;4.97;;;2.50;;
75096;SDS011;63684;47.964;11.186;2023-05-07T05:55:41;2.43;;;2.23;;
75096;SDS011;63684;47.964;11.186;2023-05-07T05:58:07;2.63;;;2.43;;
75096;SDS011;63684;47.964;11.186;2023-05-07T06:00:36;2.70;;;2.13;;
75096;SDS011;63684;47.964;11.186;2023-05-07T06:03:04;2.10;;;1.90;;
75096;SDS011;63684;47.964;11.186;2023-05-07T06:05:29;4.10;;;2.10;;
75096;SDS011;63684;47.964;11.186;2023-05-07T06:07:56;3.17;;;2.10;;
75096;SDS011;63684;47.964;11.186;2023-05-07T06:10:21;2.30;;;2.07;;
75096;SDS011;63684;47.964;11.186;2023-05-07T06:12:47;3.85;;;2.00;;
75096;SDS011;63684;47.964;11.186;2023-05-07T06:15:13;5.47;;;2.40;;
75096;SDS011;63684;47.964;11.186;2023-05-07T06:17:39;3.07;;;2.10;;
75096;SDS011;63684;47.964;11.186;2023-05-07T06:20:06;3.23;;;2.30;;
75096;SDS011;63684;47.964;11.186;2023-05-07T06:22:32;2.17;;;1.98;;
75096;SDS011;63684;47.964;11.186;2023-05-07T06:24:58;2.75;;;2.00;;
75096;SDS011;63684;47.964;11.186;2023-05-07T06:27:24;3.17;;;2.08;;
75096;SDS011;63684;47.964;11.186;2023-05-07T06:29:50;2.40;;;2.20;;
75096;SDS011;63684;47.964;11.186;2023-05-07T06:32:16;4.32;;;2.08;;
75096;SDS011;63684;47.964;11.186;2023-05-07T06:34:43;3.28;;;2.40;;
75096;SDS011;63684;47.964;11.186;2023-05-07T06:37:09;5.75;;;2.60;;
75096;SDS011;63684;47.964;11.186;2023-05-07T06:39:50;6.45;;;2.58;;
75096;SDS011;63684;47.964;11.186;2023-05-07T06:42:15;2.92;;;2.35;;
75096;SDS011;63684;47.964;11.186;2023-05-07T06:44:43;3.75;;;2.63;;
75096;SDS011;63684;47.964;11.186;2023-05-07T06:47:12;5.88;;;2.55;;
75096;SDS011;63684;47.964;11.186;2023-05-07T06:49:38;4.22;;;2.20;;
75096;SDS011;63684;47.964;11.186;2023-05-07T06:52:04;3.65;;;2.50;;
75096;SDS011;63684;47.964;11.186;2023-05-07T06:54:29;5.72;;;2.75;;
75096;SDS011;63684;47.964;11.186;2023-05-07T06:56:57;3.55;;;3.00;;
75096;SDS011;63684;47.964;11.186;2023-05-07T06:59:24;6.03;;;2.00;;
75096;SDS011;63684;47.964;11.186;2023-05-07T07:01:50;2.85;;;2.35;;
75096;SDS011;63684;47.964;11.186;2023-05-07T07:04:16;2.53;;;2.13;;
75096;SDS011;63684;47.964;11.186;2023-05-07T07:06:45;2.38;;;2.10;;
75096;SDS011;63684;47.964;11.186;2023-05-07T07:09:12;4.53;;;2.70;;
75096;SDS011;63684;47.964;11.186;2023-05-07T07:11:37;3.33;;;2.22;;
75096;SDS011;63684;47.964;11.186;2023-05-07T07:14:04;6.07;;;1.98;;
75096;SDS011;63684;47.964;11.186;2023-05-07T07:16:33;2.90;;;2.00;;
75096;SDS011;63684;47.964;11.186;2023-05-07T07:18:59;3.92;;;2.22;;
75096;SDS011;63684;47.964;11.186;2023-05-07T07:21:25;2.92;;;2.25;;
75096;SDS011;63684;47.964;11.186;2023-05-07T07:23:51;3.10;;;2.20;;
75096;SDS011;63684;47.964;11.186;2023-05-07T07:26:18;2.20;;;2.00;;
75096;SDS011;63684;47.964;11.186;2023-05-07T07:28:45;3.30;;;2.30;;
75096;SDS011;63684;47.964;11.186;2023-05-07T07:31:11;3.15;;;2.08;;
75096;SDS011;63684;47.964;11.186;2023-05-07T07:33:37;2.53;;;1.95;;
75096;SDS011;63684;47.964;11.186;2023-05-07T07:36:05;2.80;;;2.10;;
75096;SDS011;63684;47.964;11.186;2023-05-07T07:38:31;4.03;;;1.95;;
75096;SDS011;63684;47.964;11.186;2023-05-07T07:40:57;2.60;;;1.80;;
75096;SDS011;63684;47.964;11.186;2023-05-07T07:43:23;3.13;;;1.90;;
75096;SDS011;63684;47.964;11.186;2023-05-07T07:45:49;2.15;;;1.63;;
75096;SDS011;63684;47.964;11.186;2023-05-07T07:48:15;2.30;;;1.63;;
75096;SDS011;63684;47.964;11.186;2023-05-07T07:50:40;2.30;;;1.58;;
75096;SDS011;63684;47.964;11.186;2023-05-07T07:53:06;3.33;;;1.80;;
75096;SDS011;63684;47.964;11.186;2023-05-07T07:55:37;1.70;;;1.60;;
75096;SDS011;63684;47.964;11.186;2023-05-07T07:58:20;5.45;;;1.75;;
75096;SDS011;63684;47.964;11.186;2023-05-07T08:00:47;2.20;;;1.70;;
75096;SDS011;63684;47.964;11.186;2023-05-07T08:03:13;3.35;;;1.90;;
75096;SDS011;63684;47.964;11.186;2023-05-07T08:05:44;5.30;;;1.42;;
75096;SDS011;63684;47.964;11.186;2023-05-07T08:08:10;3.85;;;1.55;;
75096;SDS011;63684;47.964;11.186;2023-05-07T08:10:37;2.80;;;1.50;;
75096;SDS011;63684;47.964;11.186;2023-05-07T08:13:09;2.90;;;1.67;;
75096;SDS011;63684;47.964;11.186;2023-05-07T08:15:36;4.82;;;1.58;;
75096;SDS011;63684;47.964;11.186;2023-05-07T08:18:03;3.78;;;1.30;;
75096;SDS011;63684;47.964;11.186;2023-05-07T08:20:29;4.18;;;1.70;;
75096;SDS011;63684;47.964;11.186;2023-05-07T08:22:56;1.67;;;1.40;;
75096;SDS011;63684;47.964;11.186;2023-05-07T08:25:21;3.00;;;1.60;;
75096;SDS011;63684;47.964;11.186;2023-05-07T08:27:47;4.82;;;1.80;;
75096;SDS011;63684;47.964;11.186;2023-05-07T08:30:13;2.40;;;1.40;;
75096;SDS011;63684;47.964;11.186;2023-05-07T08:32:39;3.95;;;1.45;;
75096;SDS011;63684;47.964;11.186;2023-05-07T08:35:05;2.70;;;1.67;;
75096;SDS011;63684;47.964;11.186;2023-05-07T08:37:30;2.88;;;1.63;;
75096;SDS011;63684;47.964;11.186;2023-05-07T08:39:56;2.05;;;1.33;;
75096;SDS011;63684;47.964;11.186;2023-05-07T08:42:25;4.65;;;1.80;;
75096;SDS011;63684;47.964;11.186;2023-05-07T08:44:52;2.33;;;1.38;;
75096;SDS011;63684;47.964;11.186;2023-05-07T08:47:22;2.35;;;1.30;;
75096;SDS011;63684;47.964;11.186;2023-05-07T08:49:50;3.47;;;1.55;;
75096;SDS011;63684;47.964;11.186;2023-05-07T08:52:16;1.95;;;1.55;;
75096;SDS011;63684;47.964;11.186;2023-05-07T08:54:41;2.75;;;1.55;;
75096;SDS011;63684;47.964;11.186;2023-05-07T08:57:09;2.08;;;1.55;;
75096;SDS011;63684;47.964;11.186;2023-05-07T08:59:35;3.53;;;1.08;;
75096;SDS011;63684;47.964;11.186;2023-05-07T09:02:02;1.30;;;1.20;;
75096;SDS011;63684;47.964;11.186;2023-05-07T09:04:28;2.60;;;1.40;;
75096;SDS011;63684;47.964;11.186;2023-05-07T09:06:53;3.40;;;1.38;;
75096;SDS011;63684;47.964;11.186;2023-05-07T09:09:21;2.78;;;1.33;;
75096;SDS011;63684;47.964;11.186;2023-05-07T09:11:47;2.00;;;1.40;;
75096;SDS011;63684;47.964;11.186;2023-05-07T09:14:17;4.47;;;1.40;;
75096;SDS011;63684;47.964;11.186;2023-05-07T09:16:44;2.25;;;1.38;;
75096;SDS011;63684;47.964;11.186;2023-05-07T09:19:12;3.47;;;1.35;;
75096;SDS011;63684;47.964;11.186;2023-05-07T09:21:42;1.55;;;1.20;;
75096;SDS011;63684;47.964;11.186;2023-05-07T09:24:09;2.08;;;1.30;;
75096;SDS011;63684;47.964;11.186;2023-05-07T09:26:38;2.67;;;1.30;;
75096;SDS011;63684;47.964;11.186;2023-05-07T09:29:06;2.40;;;1.40;;
75096;SDS011;63684;47.964;11.186;2023-05-07T09:31:36;4.18;;;1.35;;
75096;SDS011;63684;47.964;11.186;2023-05-07T09:34:04;7.28;;;1.48;;
75096;SDS011;63684;47.964;11.186;2023-05-07T09:36:31;2.92;;;1.20;;
75096;SDS011;63684;47.964;11.186;2023-05-07T09:38:59;4.15;;;1.48;;
75096;SDS011;63684;47.964;11.186;2023-05-07T09:41:25;3.30;;;1.10;;
75096;SDS011;63684;47.964;11.186;2023-05-07T09:43:58;5.22;;;1.15;;
75096;SDS011;63684;47.964;11.186;2023-05-07T09:46:30;2.97;;;1.40;;
75096;SDS011;63684;47.964;11.186;2023-05-07T09:48:58;3.33;;;1.00;;
75096;SDS011;63684;47.964;11.186;2023-05-07T09:51:30;2.72;;;1.00;;
75096;SDS011;63684;47.964;11.186;2023-05-07T09:53:58;1.65;;;0.93;;
75096;SDS011;63684;47.964;11.186;2023-05-07T09:56:29;1.10;;;1.00;;
75096;SDS011;63684;47.964;11.186;2023-05-07T09:58:57;4.05;;;1.25;;
75096;SDS011;63684;47.964;11.186;2023-05-07T10:01:25;3.40;;;1.00;;
75096;SDS011;63684;47.964;11.186;2023-05-07T10:03:52;1.52;;;1.10;;
75096;SDS011;63684;47.964;11.186;2023-05-07T10:06:19;5.93;;;1.48;;
75096;SDS011;63684;47.964;11.186;2023-05-07T10:08:45;1.48;;;1.13;;
75096;SDS011;63684;47.964;11.186;2023-05-07T10:11:12;2.78;;;1.25;;
75096;SDS011;63684;47.964;11.186;2023-05-07T10:13:38;3.75;;;1.10;;
75096;SDS011;63684;47.964;11.186;2023-05-07T10:16:07;3.20;;;1.15;;
75096;SDS011;63684;47.964;11.186;2023-05-07T10:18:42;1.55;;;1.15;;
75096;SDS011;63684;47.964;11.186;2023-05-07T10:21:16;1.42;;;1.00;;
75096;SDS011;63684;47.964;11.186;2023-05-07T10:23:48;2.45;;;1.13;;
75096;SDS011;63684;47.964;11.186;2023-05-07T10:26:15;2.38;;;1.30;;
75096;SDS011;63684;47.964;11.186;2023-05-07T10:28:43;2.78;;;1.35;;
75096;SDS011;63684;47.964;11.186;2023-05-07T10:33:53;3.42;;;1.35;;
75096;SDS011;63684;47.964;11.186;2023-05-07T10:36:21;1.92;;;1.35;;
75096;SDS011;63684;47.964;11.186;2023-05-07T10:38:50;1.60;;;1.40;;
75096;SDS011;63684;47.964;11.186;2023-05-07T10:41:16;4.18;;;1.13;;
75096;SDS011;63684;47.964;11.186;2023-05-07T10:43:44;2.03;;;1.20;;
75096;SDS011;63684;47.964;11.186;2023-05-07T10:46:22;2.95;;;1.13;;
75096;SDS011;63684;47.964;11.186;2023-05-07T10:51:28;2.35;;;1.42;;
75096;SDS011;63684;47.964;11.186;2023-05-07T10:56:39;1.92;;;1.20;;
75096;SDS011;63684;47.964;11.186;2023-05-07T11:04:22;4.88;;;1.40;;
75096;SDS011;63684;47.964;11.186;2023-05-07T11:15:14;2.60;;;1.30;;
75096;SDS011;63684;47.964;11.186;2023-05-07T11:17:57;2.50;;;1.17;;
75096;SDS011;63684;47.964;11.186;2023-05-07T11:26:30;2.20;;;1.20;;
75096;SDS011;63684;47.964;11.186;2023-05-07T11:28:57;2.58;;;1.10;;
75096;SDS011;63684;47.964;11.186;2023-05-07T11:31:26;4.38;;;1.60;;
75096;SDS011;63684;47.964;11.186;2023-05-07T11:33:55;2.65;;;1.60;;
75096;SDS011;63684;47.964;11.186;2023-05-07T11:36:22;5.38;;;1.33;;
75096;SDS011;63684;47.964;11.186;2023-05-07T11:38:50;3.25;;;1.50;;
75096;SDS011;63684;47.964;11.186;2023-05-07T11:41:16;4.82;;;1.27;;
75096;SDS011;63684;47.964;11.186;2023-05-07T11:43:58;3.50;;;1.25;;
75096;SDS011;63684;47.964;11.186;2023-05-07T11:46:24;2.05;;;1.10;;
75096;SDS011;63684;47.964;11.186;2023-05-07T11:48:49;1.48;;;1.35;;
75096;SDS011;63684;47.964;11.186;2023-05-07T11:51:18;3.13;;;1.38;;
75096;SDS011;63684;47.964;11.186;2023-05-07T11:53:45;2.50;;;1.15;;
75096;SDS011;63684;47.964;11.186;2023-05-07T11:56:11;1.95;;;1.20;;
75096;SDS011;63684;47.964;11.186;2023-05-07T11:58:38;3.30;;;1.38;;
75096;SDS011;63684;47.964;11.186;2023-05-07T12:01:06;2.53;;;1.30;;
75096;SDS011;63684;47.964;11.186;2023-05-07T12:03:33;3.55;;;1.35;;
75096;SDS011;63684;47.964;11.186;2023-05-07T12:05:59;1.88;;;0.93;;
75096;SDS011;63684;47.964;11.186;2023-05-07T12:08:25;1.73;;;1.23;;
75096;SDS011;63684;47.964;11.186;2023-05-07T12:10:50;2.42;;;1.45;;
75096;SDS011;63684;47.964;11.186;2023-05-07T12:13:23;1.23;;;1.13;;
75096;SDS011;63684;47.964;11.186;2023-05-07T12:15:53;1.65;;;1.27;;
75096;SDS011;63684;47.964;11.186;2023-05-07T12:18:19;3.42;;;1.70;;
75096;SDS011;63684;47.964;11.186;2023-05-07T12:20:46;2.20;;;1.30;;
75096;SDS011;63684;47.964;11.186;2023-05-07T12:23:12;1.70;;;1.13;;
75096;SDS011;63684;47.964;11.186;2023-05-07T12:25:38;1.55;;;1.30;;
75096;SDS011;63684;47.964;11.186;2023-05-07T12:28:05;1.40;;;1.10;;
75096;SDS011;63684;47.964;11.186;2023-05-07T12:30:39;3.53;;;1.65;;
75096;SDS011;63684;47.964;11.186;2023-05-07T12:33:05;3.70;;;1.20;;
75096;SDS011;63684;47.964;11.186;2023-05-07T12:35:31;2.75;;;1.40;;
75096;SDS011;63684;47.964;11.186;2023-05-07T12:37:58;4.07;;;1.20;;
75096;SDS011;63684;47.964;11.186;2023-05-07T12:40:34;1.85;;;1.27;;
75096;SDS011;63684;47.964;11.186;2023-05-07T12:43:01;4.47;;;1.17;;
75096;SDS011;63684;47.964;11.186;2023-05-07T12:45:27;2.42;;;1.20;;
75096;SDS011;63684;47.964;11.186;2023-05-07T12:47:52;2.75;;;1.30;;
75096;SDS011;63684;47.964;11.186;2023-05-07T12:50:17;2.90;;;1.50;;
75096;SDS011;63684;47.964;11.186;2023-05-07T12:52:52;3.63;;;1.30;;
75096;SDS011;63684;47.964;11.186;2023-05-07T12:55:18;1.25;;;1.10;;
75096;SDS011;63684;47.964;11.186;2023-05-07T12:57:47;2.22;;;1.20;;
75096;SDS011;63684;47.964;11.186;2023-05-07T13:00:13;2.55;;;1.50;;
75096;SDS011;63684;47.964;11.186;2023-05-07T13:02:40;2.70;;;1.30;;
75096;SDS011;63684;47.964;11.186;2023-05-07T13:05:06;1.77;;;1.10;;
75096;SDS011;63684;47.964;11.186;2023-05-07T13:07:33;2.45;;;1.20;;
75096;SDS011;63684;47.964;11.186;2023-05-07T13:09:58;4.00;;;1.25;;
75096;SDS011;63684;47.964;11.186;2023-05-07T13:12:24;2.22;;;1.25;;
75096;SDS011;63684;47.964;11.186;2023-05-07T13:14:49;2.42;;;1.20;;
75096;SDS011;63684;47.964;11.186;2023-05-07T13:17:15;2.50;;;1.33;;
75096;SDS011;63684;47.964;11.186;2023-05-07T13:19:40;2.60;;;1.00;;
75096;SDS011;63684;47.964;11.186;2023-05-07T13:22:06;3.60;;;1.45;;
75096;SDS011;63684;47.964;11.186;2023-05-07T13:24:31;3.15;;;1.48;;
75096;SDS011;63684;47.964;11.186;2023-05-07T13:26:57;3.25;;;1.23;;
75096;SDS011;63684;47.964;11.186;2023-05-07T13:29:22;2.60;;;1.17;;
75096;SDS011;63684;47.964;11.186;2023-05-07T13:31:56;1.73;;;1.20;;
75096;SDS011;63684;47.964;11.186;2023-05-07T13:34:21;3.05;;;1.02;;
75096;SDS011;63684;47.964;11.186;2023-05-07T13:36:47;4.88;;;1.48;;
75096;SDS011;63684;47.964;11.186;2023-05-07T13:39:12;3.78;;;1.33;;
75096;SDS011;63684;47.964;11.186;2023-05-07T13:41:38;2.95;;;1.30;;
75096;SDS011;63684;47.964;11.186;2023-05-07T13:44:03;2.40;;;1.27;;
75096;SDS011;63684;47.964;11.186;2023-05-07T13:46:29;2.80;;;1.75;;
75096;SDS011;63684;47.964;11.186;2023-05-07T13:48:55;2.80;;;1.85;;
75096;SDS011;63684;47.964;11.186;2023-05-07T13:51:20;1.73;;;1.50;;
75096;SDS011;63684;47.964;11.186;2023-05-07T13:53:46;2.63;;;1.55;;
75096;SDS011;63684;47.964;11.186;2023-05-07T13:56:12;2.35;;;1.58;;
75096;SDS011;63684;47.964;11.186;2023-05-07T13:58:37;3.63;;;1.90;;
75096;SDS011;63684;47.964;11.186;2023-05-07T14:01:03;2.88;;;1.70;;
75096;SDS011;63684;47.964;11.186;2023-05-07T14:03:28;1.92;;;1.40;;
75096;SDS011;63684;47.964;11.186;2023-05-07T14:05:56;1.92;;;1.48;;
75096;SDS011;63684;47.964;11.186;2023-05-07T14:08:22;2.60;;;1.70;;
75096;SDS011;63684;47.964;11.186;2023-05-07T14:10:48;2.28;;;1.90;;
75096;SDS011;63684;47.964;11.186;2023-05-07T14:13:13;4.03;;;1.60;;
75096;SDS011;63684;47.964;11.186;2023-05-07T14:15:39;3.83;;;1.90;;
75096;SDS011;63684;47.964;11.186;2023-05-07T14:18:05;6.05;;;2.17;;
75096;SDS011;63684;47.964;11.186;2023-05-07T14:20:30;2.88;;;1.48;;
75096;SDS011;63684;47.964;11.186;2023-05-07T14:22:56;2.33;;;1.45;;
75096;SDS011;63684;47.964;11.186;2023-05-07T14:25:21;1.63;;;1.40;;
75096;SDS011;63684;47.964;11.186;2023-05-07T14:27:50;4.40;;;2.00;;
75096;SDS011;63684;47.964;11.186;2023-05-07T14:30:15;4.47;;;1.88;;
75096;SDS011;63684;47.964;11.186;2023-05-07T14:32:41;1.75;;;1.63;;
75096;SDS011;63684;47.964;11.186;2023-05-07T14:35:07;3.03;;;1.75;;
75096;SDS011;63684;47.964;11.186;2023-05-07T14:37:33;2.25;;;2.05;;
75096;SDS011;63684;47.964;11.186;2023-05-07T14:39:58;2.65;;;1.77;;
75096;SDS011;63684;47.964;11.186;2023-05-07T14:42:24;5.70;;;1.90;;
75096;SDS011;63684;47.964;11.186;2023-05-07T14:44:49;1.70;;;1.60;;
75096;SDS011;63684;47.964;11.186;2023-05-07T14:47:15;3.60;;;1.77;;
75096;SDS011;63684;47.964;11.186;2023-05-07T14:49:40;5.22;;;1.90;;
75096;SDS011;63684;47.964;11.186;2023-05-07T14:52:07;4.60;;;1.85;;
75096;SDS011;63684;47.964;11.186;2023-05-07T14:54:34;2.50;;;1.80;;
75096;SDS011;63684;47.964;11.186;2023-05-07T14:57:00;2.33;;;2.00;;
75096;SDS011;63684;47.964;11.186;2023-05-07T14:59:26;4.22;;;2.00;;